Аэропорт: Братск. Братск

ICAO: UIBB

METAR:
2020-06-02 09:00:00
UIBB 020900Z 27002MPS 210V330 9999 NSC 16/03 Q1006 R30/60D NOSIG RMK QFE712/0949
METAR:
2020-06-02 08:00:00
TAF UIBB 020800Z 0209/0309 25005MPS 9999 BKN020CB BECMG 0210/0212 17003G08MPS